sensor_id;sensor_type;location;lat;lon;timestamp;P1;durP1;ratioP1;P2;durP2;ratioP2
24585;SDS011;12743;52.262;6.172;2022-07-03T00:01:17;6.22;;;1.95;;
24585;SDS011;12743;52.262;6.172;2022-07-03T00:03:43;5.07;;;2.30;;
24585;SDS011;12743;52.262;6.172;2022-07-03T00:06:08;6.90;;;2.20;;
24585;SDS011;12743;52.262;6.172;2022-07-03T00:08:34;5.53;;;1.98;;
24585;SDS011;12743;52.262;6.172;2022-07-03T00:11:00;4.90;;;2.07;;
24585;SDS011;12743;52.262;6.172;2022-07-03T00:13:25;5.82;;;2.30;;
24585;SDS011;12743;52.262;6.172;2022-07-03T00:15:50;3.90;;;2.03;;
24585;SDS011;12743;52.262;6.172;2022-07-03T00:18:16;6.93;;;2.10;;
24585;SDS011;12743;52.262;6.172;2022-07-03T00:20:45;9.17;;;2.37;;
24585;SDS011;12743;52.262;6.172;2022-07-03T00:23:13;4.45;;;2.00;;
24585;SDS011;12743;52.262;6.172;2022-07-03T00:25:42;7.82;;;2.20;;
24585;SDS011;12743;52.262;6.172;2022-07-03T00:28:08;7.07;;;2.15;;
24585;SDS011;12743;52.262;6.172;2022-07-03T00:30:34;5.83;;;2.50;;
24585;SDS011;12743;52.262;6.172;2022-07-03T00:33:03;5.10;;;2.07;;
24585;SDS011;12743;52.262;6.172;2022-07-03T00:35:34;6.37;;;2.10;;
24585;SDS011;12743;52.262;6.172;2022-07-03T00:38:01;5.07;;;2.15;;
24585;SDS011;12743;52.262;6.172;2022-07-03T00:40:26;7.63;;;2.53;;
24585;SDS011;12743;52.262;6.172;2022-07-03T00:42:52;5.40;;;2.30;;
24585;SDS011;12743;52.262;6.172;2022-07-03T00:45:19;4.67;;;2.20;;
24585;SDS011;12743;52.262;6.172;2022-07-03T00:47:45;5.68;;;2.40;;
24585;SDS011;12743;52.262;6.172;2022-07-03T00:50:11;5.10;;;2.05;;
24585;SDS011;12743;52.262;6.172;2022-07-03T00:52:37;4.43;;;1.87;;
24585;SDS011;12743;52.262;6.172;2022-07-03T00:55:06;6.35;;;2.03;;
24585;SDS011;12743;52.262;6.172;2022-07-03T00:57:35;6.10;;;2.10;;
24585;SDS011;12743;52.262;6.172;2022-07-03T01:00:09;5.17;;;2.20;;
24585;SDS011;12743;52.262;6.172;2022-07-03T01:02:53;4.40;;;1.85;;
24585;SDS011;12743;52.262;6.172;2022-07-03T01:05:26;5.93;;;2.17;;
24585;SDS011;12743;52.262;6.172;2022-07-03T01:10:54;4.25;;;1.98;;
24585;SDS011;12743;52.262;6.172;2022-07-03T01:14:12;4.47;;;1.90;;
24585;SDS011;12743;52.262;6.172;2022-07-03T01:16:38;4.18;;;1.70;;
24585;SDS011;12743;52.262;6.172;2022-07-03T01:19:22;4.97;;;1.80;;
24585;SDS011;12743;52.262;6.172;2022-07-03T01:22:06;4.68;;;2.13;;
24585;SDS011;12743;52.262;6.172;2022-07-03T01:30:16;4.15;;;1.98;;
24585;SDS011;12743;52.262;6.172;2022-07-03T01:32:44;4.35;;;1.90;;
24585;SDS011;12743;52.262;6.172;2022-07-03T01:35:12;4.90;;;2.00;;
24585;SDS011;12743;52.262;6.172;2022-07-03T01:37:44;5.32;;;1.90;;
24585;SDS011;12743;52.262;6.172;2022-07-03T01:40:10;6.00;;;2.10;;
24585;SDS011;12743;52.262;6.172;2022-07-03T01:42:36;4.43;;;2.15;;
24585;SDS011;12743;52.262;6.172;2022-07-03T01:45:08;5.50;;;2.13;;
24585;SDS011;12743;52.262;6.172;2022-07-03T01:47:35;5.20;;;1.90;;
24585;SDS011;12743;52.262;6.172;2022-07-03T01:50:05;5.18;;;1.75;;
24585;SDS011;12743;52.262;6.172;2022-07-03T01:52:31;5.07;;;2.45;;
24585;SDS011;12743;52.262;6.172;2022-07-03T01:55:00;5.03;;;2.60;;
24585;SDS011;12743;52.262;6.172;2022-07-03T01:57:33;6.30;;;3.13;;
24585;SDS011;12743;52.262;6.172;2022-07-03T02:00:15;9.57;;;3.53;;
24585;SDS011;12743;52.262;6.172;2022-07-03T02:02:45;7.00;;;3.22;;
24585;SDS011;12743;52.262;6.172;2022-07-03T02:08:58;6.00;;;3.42;;
24585;SDS011;12743;52.262;6.172;2022-07-03T02:11:22;5.47;;;3.63;;
24585;SDS011;12743;52.262;6.172;2022-07-03T02:19:54;7.03;;;2.83;;
24585;SDS011;12743;52.262;6.172;2022-07-03T02:22:25;6.47;;;3.70;;
24585;SDS011;12743;52.262;6.172;2022-07-03T02:24:53;4.73;;;2.93;;
24585;SDS011;12743;52.262;6.172;2022-07-03T02:27:42;6.47;;;3.40;;
24585;SDS011;12743;52.262;6.172;2022-07-03T02:30:10;7.15;;;3.30;;
24585;SDS011;12743;52.262;6.172;2022-07-03T02:32:43;6.40;;;3.50;;
24585;SDS011;12743;52.262;6.172;2022-07-03T02:35:29;8.07;;;3.08;;
24585;SDS011;12743;52.262;6.172;2022-07-03T02:46:38;7.53;;;3.28;;
24585;SDS011;12743;52.262;6.172;2022-07-03T02:52:32;5.43;;;3.00;;
24585;SDS011;12743;52.262;6.172;2022-07-03T02:54:48;6.75;;;2.50;;
24585;SDS011;12743;52.262;6.172;2022-07-03T02:57:17;6.45;;;3.10;;
24585;SDS011;12743;52.262;6.172;2022-07-03T03:05:27;5.13;;;2.80;;
24585;SDS011;12743;52.262;6.172;2022-07-03T03:08:12;5.57;;;3.03;;
24585;SDS011;12743;52.262;6.172;2022-07-03T03:11:03;6.80;;;3.00;;
24585;SDS011;12743;52.262;6.172;2022-07-03T03:13:31;9.20;;;3.17;;
24585;SDS011;12743;52.262;6.172;2022-07-03T03:15:58;4.87;;;2.43;;
24585;SDS011;12743;52.262;6.172;2022-07-03T03:18:34;5.28;;;2.22;;
24585;SDS011;12743;52.262;6.172;2022-07-03T03:21:02;6.28;;;2.05;;
24585;SDS011;12743;52.262;6.172;2022-07-03T03:23:45;7.07;;;2.72;;
24585;SDS011;12743;52.262;6.172;2022-07-03T03:26:20;5.60;;;2.30;;
24585;SDS011;12743;52.262;6.172;2022-07-03T03:28:48;5.82;;;2.80;;
24585;SDS011;12743;52.262;6.172;2022-07-03T03:31:15;6.13;;;2.65;;
24585;SDS011;12743;52.262;6.172;2022-07-03T03:33:41;6.60;;;2.97;;
24585;SDS011;12743;52.262;6.172;2022-07-03T03:36:08;6.00;;;3.10;;
24585;SDS011;12743;52.262;6.172;2022-07-03T03:38:36;4.90;;;2.40;;
24585;SDS011;12743;52.262;6.172;2022-07-03T03:41:02;4.95;;;2.70;;
24585;SDS011;12743;52.262;6.172;2022-07-03T03:43:29;6.40;;;2.75;;
24585;SDS011;12743;52.262;6.172;2022-07-03T03:45:55;7.80;;;2.53;;
24585;SDS011;12743;52.262;6.172;2022-07-03T03:48:20;4.63;;;2.67;;
24585;SDS011;12743;52.262;6.172;2022-07-03T03:50:45;6.00;;;1.90;;
24585;SDS011;12743;52.262;6.172;2022-07-03T03:53:11;6.22;;;2.45;;
24585;SDS011;12743;52.262;6.172;2022-07-03T03:55:37;7.40;;;2.40;;
24585;SDS011;12743;52.262;6.172;2022-07-03T03:58:16;5.50;;;3.00;;
24585;SDS011;12743;52.262;6.172;2022-07-03T04:00:42;6.83;;;2.77;;
24585;SDS011;12743;52.262;6.172;2022-07-03T04:03:07;4.45;;;2.60;;
24585;SDS011;12743;52.262;6.172;2022-07-03T04:05:32;4.63;;;2.40;;
24585;SDS011;12743;52.262;6.172;2022-07-03T04:07:58;5.10;;;2.73;;
24585;SDS011;12743;52.262;6.172;2022-07-03T04:10:23;6.80;;;2.83;;
24585;SDS011;12743;52.262;6.172;2022-07-03T04:12:48;5.03;;;2.53;;
24585;SDS011;12743;52.262;6.172;2022-07-03T04:15:14;5.40;;;2.07;;
24585;SDS011;12743;52.262;6.172;2022-07-03T04:17:39;5.47;;;1.63;;
24585;SDS011;12743;52.262;6.172;2022-07-03T04:20:05;3.65;;;1.95;;
24585;SDS011;12743;52.262;6.172;2022-07-03T04:22:30;5.47;;;2.60;;
24585;SDS011;12743;52.262;6.172;2022-07-03T04:24:56;5.30;;;3.00;;
24585;SDS011;12743;52.262;6.172;2022-07-03T04:27:21;6.43;;;3.38;;
24585;SDS011;12743;52.262;6.172;2022-07-03T04:29:46;5.07;;;1.90;;
24585;SDS011;12743;52.262;6.172;2022-07-03T04:32:12;5.20;;;2.40;;
24585;SDS011;12743;52.262;6.172;2022-07-03T04:34:37;6.97;;;2.60;;
24585;SDS011;12743;52.262;6.172;2022-07-03T04:37:02;5.60;;;2.30;;
24585;SDS011;12743;52.262;6.172;2022-07-03T04:39:28;4.97;;;3.05;;
24585;SDS011;12743;52.262;6.172;2022-07-03T04:41:53;5.30;;;2.87;;
24585;SDS011;12743;52.262;6.172;2022-07-03T04:44:19;7.50;;;2.63;;
24585;SDS011;12743;52.262;6.172;2022-07-03T04:46:44;6.43;;;2.53;;
24585;SDS011;12743;52.262;6.172;2022-07-03T04:49:09;5.37;;;2.53;;
24585;SDS011;12743;52.262;6.172;2022-07-03T04:51:35;5.07;;;2.30;;
24585;SDS011;12743;52.262;6.172;2022-07-03T04:54:00;4.40;;;2.87;;
24585;SDS011;12743;52.262;6.172;2022-07-03T04:56:26;5.73;;;2.40;;
24585;SDS011;12743;52.262;6.172;2022-07-03T04:58:51;4.43;;;1.90;;
24585;SDS011;12743;52.262;6.172;2022-07-03T05:01:16;7.90;;;2.30;;
24585;SDS011;12743;52.262;6.172;2022-07-03T05:03:42;7.60;;;2.57;;
24585;SDS011;12743;52.262;6.172;2022-07-03T05:06:07;3.65;;;1.40;;
24585;SDS011;12743;52.262;6.172;2022-07-03T05:08:32;7.30;;;2.03;;
24585;SDS011;12743;52.262;6.172;2022-07-03T05:10:58;4.70;;;1.50;;
24585;SDS011;12743;52.262;6.172;2022-07-03T05:13:25;5.03;;;2.03;;
24585;SDS011;12743;52.262;6.172;2022-07-03T05:15:50;5.87;;;2.00;;
24585;SDS011;12743;52.262;6.172;2022-07-03T05:18:15;4.20;;;1.30;;
24585;SDS011;12743;52.262;6.172;2022-07-03T05:20:41;3.87;;;1.73;;
24585;SDS011;12743;52.262;6.172;2022-07-03T05:23:06;4.70;;;2.10;;
24585;SDS011;12743;52.262;6.172;2022-07-03T05:25:31;2.95;;;1.50;;
24585;SDS011;12743;52.262;6.172;2022-07-03T05:27:57;4.30;;;1.50;;
24585;SDS011;12743;52.262;6.172;2022-07-03T05:30:23;4.55;;;1.30;;
24585;SDS011;12743;52.262;6.172;2022-07-03T05:32:50;4.68;;;1.50;;
24585;SDS011;12743;52.262;6.172;2022-07-03T05:35:16;6.03;;;1.30;;
24585;SDS011;12743;52.262;6.172;2022-07-03T05:37:42;4.28;;;1.35;;
24585;SDS011;12743;52.262;6.172;2022-07-03T05:40:07;2.80;;;1.10;;
24585;SDS011;12743;52.262;6.172;2022-07-03T05:42:33;5.07;;;1.70;;
24585;SDS011;12743;52.262;6.172;2022-07-03T05:44:59;4.97;;;1.70;;
24585;SDS011;12743;52.262;6.172;2022-07-03T05:47:25;4.15;;;1.48;;
24585;SDS011;12743;52.262;6.172;2022-07-03T05:49:50;3.57;;;1.13;;
24585;SDS011;12743;52.262;6.172;2022-07-03T05:52:15;3.53;;;1.10;;
24585;SDS011;12743;52.262;6.172;2022-07-03T05:54:41;4.20;;;1.70;;
24585;SDS011;12743;52.262;6.172;2022-07-03T05:57:07;5.63;;;1.50;;
24585;SDS011;12743;52.262;6.172;2022-07-03T05:59:32;3.47;;;1.20;;
24585;SDS011;12743;52.262;6.172;2022-07-03T06:01:58;4.10;;;1.20;;
24585;SDS011;12743;52.262;6.172;2022-07-03T06:04:23;3.63;;;1.00;;
24585;SDS011;12743;52.262;6.172;2022-07-03T06:06:49;3.47;;;1.17;;
24585;SDS011;12743;52.262;6.172;2022-07-03T06:09:14;6.03;;;1.50;;
24585;SDS011;12743;52.262;6.172;2022-07-03T06:11:39;5.07;;;1.30;;
24585;SDS011;12743;52.262;6.172;2022-07-03T06:14:05;3.83;;;0.90;;
24585;SDS011;12743;52.262;6.172;2022-07-03T06:16:31;4.22;;;1.10;;
24585;SDS011;12743;52.262;6.172;2022-07-03T06:18:56;2.93;;;0.80;;
24585;SDS011;12743;52.262;6.172;2022-07-03T06:21:21;6.73;;;0.90;;
24585;SDS011;12743;52.262;6.172;2022-07-03T06:23:47;3.77;;;1.40;;
24585;SDS011;12743;52.262;6.172;2022-07-03T06:26:15;2.23;;;0.90;;
24585;SDS011;12743;52.262;6.172;2022-07-03T06:28:41;3.78;;;1.02;;
24585;SDS011;12743;52.262;6.172;2022-07-03T06:31:07;3.92;;;1.15;;
24585;SDS011;12743;52.262;6.172;2022-07-03T06:33:32;4.77;;;0.83;;
24585;SDS011;12743;52.262;6.172;2022-07-03T06:35:57;3.80;;;0.97;;
24585;SDS011;12743;52.262;6.172;2022-07-03T06:38:23;7.10;;;1.10;;
24585;SDS011;12743;52.262;6.172;2022-07-03T06:40:48;2.70;;;0.93;;
24585;SDS011;12743;52.262;6.172;2022-07-03T06:43:14;4.17;;;0.90;;
24585;SDS011;12743;52.262;6.172;2022-07-03T06:45:39;4.50;;;0.97;;
24585;SDS011;12743;52.262;6.172;2022-07-03T06:48:05;4.63;;;0.80;;
24585;SDS011;12743;52.262;6.172;2022-07-03T06:50:30;3.72;;;0.75;;
24585;SDS011;12743;52.262;6.172;2022-07-03T06:52:56;4.70;;;0.70;;
24585;SDS011;12743;52.262;6.172;2022-07-03T06:55:21;3.77;;;0.60;;
24585;SDS011;12743;52.262;6.172;2022-07-03T06:57:46;3.20;;;0.68;;
24585;SDS011;12743;52.262;6.172;2022-07-03T07:00:12;6.57;;;0.80;;
24585;SDS011;12743;52.262;6.172;2022-07-03T07:02:37;4.47;;;0.50;;
24585;SDS011;12743;52.262;6.172;2022-07-03T07:05:03;3.13;;;0.60;;
24585;SDS011;12743;52.262;6.172;2022-07-03T07:07:29;4.35;;;0.50;;
24585;SDS011;12743;52.262;6.172;2022-07-03T07:09:54;2.67;;;0.40;;
24585;SDS011;12743;52.262;6.172;2022-07-03T07:12:19;3.77;;;0.70;;
24585;SDS011;12743;52.262;6.172;2022-07-03T07:14:45;2.65;;;0.40;;
24585;SDS011;12743;52.262;6.172;2022-07-03T07:17:11;3.90;;;0.70;;
24585;SDS011;12743;52.262;6.172;2022-07-03T07:19:36;4.07;;;0.75;;
24585;SDS011;12743;52.262;6.172;2022-07-03T07:22:02;3.77;;;0.57;;
24585;SDS011;12743;52.262;6.172;2022-07-03T07:24:28;6.47;;;0.70;;
24585;SDS011;12743;52.262;6.172;2022-07-03T07:26:54;4.43;;;0.57;;
24585;SDS011;12743;52.262;6.172;2022-07-03T07:29:19;3.73;;;0.50;;
24585;SDS011;12743;52.262;6.172;2022-07-03T07:31:45;1.90;;;0.45;;
24585;SDS011;12743;52.262;6.172;2022-07-03T07:34:10;3.20;;;0.60;;
24585;SDS011;12743;52.262;6.172;2022-07-03T07:36:35;2.53;;;0.50;;
24585;SDS011;12743;52.262;6.172;2022-07-03T07:39:01;5.33;;;0.80;;
24585;SDS011;12743;52.262;6.172;2022-07-03T07:41:26;3.93;;;0.70;;
24585;SDS011;12743;52.262;6.172;2022-07-03T07:43:51;4.33;;;0.97;;
24585;SDS011;12743;52.262;6.172;2022-07-03T07:46:17;2.28;;;0.70;;
24585;SDS011;12743;52.262;6.172;2022-07-03T07:48:42;2.80;;;0.77;;
24585;SDS011;12743;52.262;6.172;2022-07-03T07:51:07;4.10;;;0.60;;
24585;SDS011;12743;52.262;6.172;2022-07-03T07:53:33;3.77;;;0.70;;
24585;SDS011;12743;52.262;6.172;2022-07-03T07:55:58;2.37;;;0.50;;
24585;SDS011;12743;52.262;6.172;2022-07-03T07:58:23;4.27;;;0.60;;
24585;SDS011;12743;52.262;6.172;2022-07-03T08:00:49;3.03;;;0.60;;
24585;SDS011;12743;52.262;6.172;2022-07-03T08:03:33;4.68;;;0.60;;
24585;SDS011;12743;52.262;6.172;2022-07-03T08:06:17;4.55;;;0.68;;
24585;SDS011;12743;52.262;6.172;2022-07-03T08:08:43;5.32;;;0.70;;
24585;SDS011;12743;52.262;6.172;2022-07-03T08:11:08;3.03;;;0.70;;
24585;SDS011;12743;52.262;6.172;2022-07-03T08:13:34;5.13;;;0.80;;
24585;SDS011;12743;52.262;6.172;2022-07-03T08:15:59;4.80;;;0.75;;
24585;SDS011;12743;52.262;6.172;2022-07-03T08:18:25;3.90;;;0.87;;
24585;SDS011;12743;52.262;6.172;2022-07-03T08:20:50;3.40;;;0.60;;
24585;SDS011;12743;52.262;6.172;2022-07-03T08:23:15;4.03;;;0.60;;
24585;SDS011;12743;52.262;6.172;2022-07-03T08:25:41;4.47;;;0.90;;
24585;SDS011;12743;52.262;6.172;2022-07-03T08:28:07;8.20;;;1.10;;
24585;SDS011;12743;52.262;6.172;2022-07-03T08:30:32;3.47;;;0.70;;
24585;SDS011;12743;52.262;6.172;2022-07-03T08:32:58;2.42;;;0.60;;
24585;SDS011;12743;52.262;6.172;2022-07-03T08:35:24;3.23;;;0.57;;
24585;SDS011;12743;52.262;6.172;2022-07-03T08:37:49;4.63;;;0.70;;
24585;SDS011;12743;52.262;6.172;2022-07-03T08:40:16;2.33;;;0.70;;
24585;SDS011;12743;52.262;6.172;2022-07-03T08:42:46;3.72;;;0.75;;
24585;SDS011;12743;52.262;6.172;2022-07-03T08:45:14;5.15;;;0.75;;
24585;SDS011;12743;52.262;6.172;2022-07-03T08:47:41;2.97;;;0.85;;
24585;SDS011;12743;52.262;6.172;2022-07-03T08:50:08;3.15;;;0.50;;
24585;SDS011;12743;52.262;6.172;2022-07-03T08:52:34;3.90;;;0.50;;
24585;SDS011;12743;52.262;6.172;2022-07-03T08:55:01;2.92;;;0.63;;
24585;SDS011;12743;52.262;6.172;2022-07-03T08:57:28;2.13;;;0.50;;
24585;SDS011;12743;52.262;6.172;2022-07-03T08:59:56;3.38;;;0.45;;
24585;SDS011;12743;52.262;6.172;2022-07-03T09:02:23;3.00;;;0.40;;
24585;SDS011;12743;52.262;6.172;2022-07-03T09:04:50;2.30;;;0.40;;
24585;SDS011;12743;52.262;6.172;2022-07-03T09:07:15;4.27;;;0.50;;
24585;SDS011;12743;52.262;6.172;2022-07-03T09:09:43;4.00;;;0.50;;
24585;SDS011;12743;52.262;6.172;2022-07-03T09:12:09;4.10;;;0.90;;
24585;SDS011;12743;52.262;6.172;2022-07-03T09:14:35;3.22;;;0.50;;
24585;SDS011;12743;52.262;6.172;2022-07-03T09:17:00;1.63;;;0.43;;
24585;SDS011;12743;52.262;6.172;2022-07-03T09:22:25;3.45;;;0.50;;
24585;SDS011;12743;52.262;6.172;2022-07-03T09:25:04;1.83;;;0.55;;
24585;SDS011;12743;52.262;6.172;2022-07-03T09:27:33;4.20;;;0.50;;
24585;SDS011;12743;52.262;6.172;2022-07-03T09:30:08;3.88;;;0.50;;
24585;SDS011;12743;52.262;6.172;2022-07-03T09:35:09;2.05;;;0.40;;
24585;SDS011;12743;52.262;6.172;2022-07-03T09:37:39;2.63;;;0.32;;
24585;SDS011;12743;52.262;6.172;2022-07-03T09:40:05;4.70;;;0.60;;
24585;SDS011;12743;52.262;6.172;2022-07-03T09:42:31;2.28;;;0.30;;
24585;SDS011;12743;52.262;6.172;2022-07-03T09:44:56;2.10;;;0.40;;
24585;SDS011;12743;52.262;6.172;2022-07-03T09:47:22;1.88;;;0.40;;
24585;SDS011;12743;52.262;6.172;2022-07-03T09:52:27;4.53;;;0.50;;
24585;SDS011;12743;52.262;6.172;2022-07-03T09:57:35;2.38;;;0.40;;
24585;SDS011;12743;52.262;6.172;2022-07-03T10:00:08;2.83;;;0.50;;
24585;SDS011;12743;52.262;6.172;2022-07-03T10:02:50;2.90;;;0.40;;
24585;SDS011;12743;52.262;6.172;2022-07-03T10:05:16;3.90;;;0.60;;
24585;SDS011;12743;52.262;6.172;2022-07-03T10:07:55;6.53;;;0.57;;
24585;SDS011;12743;52.262;6.172;2022-07-03T10:10:23;4.10;;;0.50;;
24585;SDS011;12743;52.262;6.172;2022-07-03T10:12:50;2.40;;;0.50;;
24585;SDS011;12743;52.262;6.172;2022-07-03T10:15:17;4.63;;;0.47;;
24585;SDS011;12743;52.262;6.172;2022-07-03T10:17:43;2.50;;;0.40;;
24585;SDS011;12743;52.262;6.172;2022-07-03T10:20:13;1.93;;;0.37;;
24585;SDS011;12743;52.262;6.172;2022-07-03T10:22:40;2.80;;;0.47;;
24585;SDS011;12743;52.262;6.172;2022-07-03T10:25:07;1.95;;;0.40;;
24585;SDS011;12743;52.262;6.172;2022-07-03T10:27:33;1.45;;;0.43;;
24585;SDS011;12743;52.262;6.172;2022-07-03T10:30:01;3.08;;;0.50;;
24585;SDS011;12743;52.262;6.172;2022-07-03T10:32:27;3.50;;;0.60;;
24585;SDS011;12743;52.262;6.172;2022-07-03T10:34:53;2.00;;;0.50;;
24585;SDS011;12743;52.262;6.172;2022-07-03T10:37:18;1.90;;;0.40;;
24585;SDS011;12743;52.262;6.172;2022-07-03T10:40:03;2.95;;;0.50;;
24585;SDS011;12743;52.262;6.172;2022-07-03T10:43:02;2.35;;;0.50;;
24585;SDS011;12743;52.262;6.172;2022-07-03T10:46:12;2.60;;;0.60;;
24585;SDS011;12743;52.262;6.172;2022-07-03T10:51:27;2.95;;;0.52;;
24585;SDS011;12743;52.262;6.172;2022-07-03T11:05:03;2.00;;;0.40;;
24585;SDS011;12743;52.262;6.172;2022-07-03T11:07:38;3.35;;;0.50;;
24585;SDS011;12743;52.262;6.172;2022-07-03T11:15:29;1.93;;;0.37;;
24585;SDS011;12743;52.262;6.172;2022-07-03T11:20:30;1.98;;;0.50;;
24585;SDS011;12743;52.262;6.172;2022-07-03T11:23:00;4.55;;;0.50;;
24585;SDS011;12743;52.262;6.172;2022-07-03T11:25:39;1.50;;;0.38;;
24585;SDS011;12743;52.262;6.172;2022-07-03T11:36:08;2.58;;;0.38;;
24585;SDS011;12743;52.262;6.172;2022-07-03T11:38:34;1.73;;;0.40;;
24585;SDS011;12743;52.262;6.172;2022-07-03T11:41:00;3.43;;;0.43;;
24585;SDS011;12743;52.262;6.172;2022-07-03T11:43:27;2.67;;;0.32;;
24585;SDS011;12743;52.262;6.172;2022-07-03T11:45:53;3.33;;;0.38;;
24585;SDS011;12743;52.262;6.172;2022-07-03T11:48:19;3.63;;;0.30;;
24585;SDS011;12743;52.262;6.172;2022-07-03T11:50:47;1.67;;;0.35;;
24585;SDS011;12743;52.262;6.172;2022-07-03T11:53:17;1.95;;;0.45;;
24585;SDS011;12743;52.262;6.172;2022-07-03T11:55:52;2.45;;;0.40;;
24585;SDS011;12743;52.262;6.172;2022-07-03T11:58:19;2.10;;;0.30;;
24585;SDS011;12743;52.262;6.172;2022-07-03T12:00:45;2.00;;;0.22;;
24585;SDS011;12743;52.262;6.172;2022-07-03T12:03:15;2.63;;;0.38;;
24585;SDS011;12743;52.262;6.172;2022-07-03T12:05:51;1.27;;;0.30;;
24585;SDS011;12743;52.262;6.172;2022-07-03T12:08:27;0.75;;;0.20;;
24585;SDS011;12743;52.262;6.172;2022-07-03T12:10:56;3.03;;;0.32;;
24585;SDS011;12743;52.262;6.172;2022-07-03T12:13:27;2.33;;;0.47;;
24585;SDS011;12743;52.262;6.172;2022-07-03T12:16:00;3.97;;;0.40;;
24585;SDS011;12743;52.262;6.172;2022-07-03T12:18:26;3.97;;;0.40;;
24585;SDS011;12743;52.262;6.172;2022-07-03T12:20:51;2.08;;;0.30;;
24585;SDS011;12743;52.262;6.172;2022-07-03T12:23:17;3.40;;;0.50;;
24585;SDS011;12743;52.262;6.172;2022-07-03T12:25:42;1.77;;;0.40;;
24585;SDS011;12743;52.262;6.172;2022-07-03T12:28:08;2.97;;;0.40;;
24585;SDS011;12743;52.262;6.172;2022-07-03T12:30:35;3.15;;;0.50;;
24585;SDS011;12743;52.262;6.172;2022-07-03T12:33:01;3.22;;;0.63;;
24585;SDS011;12743;52.262;6.172;2022-07-03T12:35:28;2.10;;;0.43;;
24585;SDS011;12743;52.262;6.172;2022-07-03T12:37:53;3.07;;;0.33;;
24585;SDS011;12743;52.262;6.172;2022-07-03T12:40:19;3.00;;;0.40;;
24585;SDS011;12743;52.262;6.172;2022-07-03T12:42:45;3.33;;;0.60;;
24585;SDS011;12743;52.262;6.172;2022-07-03T12:45:12;1.98;;;0.63;;
24585;SDS011;12743;52.262;6.172;2022-07-03T12:47:39;2.70;;;0.73;;
24585;SDS011;12743;52.262;6.172;2022-07-03T12:50:06;5.47;;;0.60;;
24585;SDS011;12743;52.262;6.172;2022-07-03T12:52:33;1.90;;;0.47;;
24585;SDS011;12743;52.262;6.172;2022-07-03T12:55:21;2.30;;;0.43;;
24585;SDS011;12743;52.262;6.172;2022-07-03T12:58:10;3.17;;;0.50;;
24585;SDS011;12743;52.262;6.172;2022-07-03T13:01:05;1.27;;;0.40;;
24585;SDS011;12743;52.262;6.172;2022-07-03T13:03:33;3.30;;;0.40;;
24585;SDS011;12743;52.262;6.172;2022-07-03T13:05:59;4.60;;;0.60;;
24585;SDS011;12743;52.262;6.172;2022-07-03T13:08:25;2.37;;;0.70;;
24585;SDS011;12743;52.262;6.172;2022-07-03T13:10:57;3.00;;;0.60;;
24585;SDS011;12743;52.262;6.172;2022-07-03T13:13:24;3.25;;;0.77;;
24585;SDS011;12743;52.262;6.172;2022-07-03T13:15:50;2.60;;;0.52;;
24585;SDS011;12743;52.262;6.172;2022-07-03T13:18:16;2.10;;;0.47;;
24585;SDS011;12743;52.262;6.172;2022-07-03T13:20:42;1.90;;;0.40;;
24585;SDS011;12743;52.262;6.172;2022-07-03T13:23:08;2.63;;;0.50;;
24585;SDS011;12743;52.262;6.172;2022-07-03T13:25:35;3.23;;;0.50;;
24585;SDS011;12743;52.262;6.172;2022-07-03T13:28:08;3.42;;;0.73;;
24585;SDS011;12743;52.262;6.172;2022-07-03T13:30:38;2.72;;;0.60;;
24585;SDS011;12743;52.262;6.172;2022-07-03T13:33:05;3.40;;;0.50;;
24585;SDS011;12743;52.262;6.172;2022-07-03T13:35:31;4.57;;;0.73;;
24585;SDS011;12743;52.262;6.172;2022-07-03T13:37:57;2.78;;;0.90;;
24585;SDS011;12743;52.262;6.172;2022-07-03T13:40:22;4.77;;;0.90;;
24585;SDS011;12743;52.262;6.172;2022-07-03T13:42:48;6.63;;;0.63;;
24585;SDS011;12743;52.262;6.172;2022-07-03T13:45:13;5.30;;;0.73;;
24585;SDS011;12743;52.262;6.172;2022-07-03T13:47:39;2.77;;;0.70;;
24585;SDS011;12743;52.262;6.172;2022-07-03T13:50:04;1.87;;;0.63;;
24585;SDS011;12743;52.262;6.172;2022-07-03T13:52:30;2.90;;;0.60;;
24585;SDS011;12743;52.262;6.172;2022-07-03T13:54:55;2.93;;;0.73;;
24585;SDS011;12743;52.262;6.172;2022-07-03T13:57:21;3.70;;;0.70;;
24585;SDS011;12743;52.262;6.172;2022-07-03T13:59:46;2.23;;;0.60;;
24585;SDS011;12743;52.262;6.172;2022-07-03T14:02:12;2.72;;;0.70;;
24585;SDS011;12743;52.262;6.172;2022-07-03T14:04:38;3.83;;;0.60;;
24585;SDS011;12743;52.262;6.172;2022-07-03T14:07:04;2.30;;;0.70;;
24585;SDS011;12743;52.262;6.172;2022-07-03T14:09:29;5.20;;;1.00;;
24585;SDS011;12743;52.262;6.172;2022-07-03T14:11:55;2.38;;;0.68;;
24585;SDS011;12743;52.262;6.172;2022-07-03T14:14:20;2.40;;;0.50;;
24585;SDS011;12743;52.262;6.172;2022-07-03T14:16:45;3.07;;;0.50;;
24585;SDS011;12743;52.262;6.172;2022-07-03T14:19:11;4.30;;;1.00;;
24585;SDS011;12743;52.262;6.172;2022-07-03T14:21:36;3.30;;;0.53;;
24585;SDS011;12743;52.262;6.172;2022-07-03T14:24:01;4.00;;;0.80;;
24585;SDS011;12743;52.262;6.172;2022-07-03T14:26:27;2.97;;;0.85;;
24585;SDS011;12743;52.262;6.172;2022-07-03T14:29:11;4.13;;;0.70;;
24585;SDS011;12743;52.262;6.172;2022-07-03T14:31:55;2.47;;;0.60;;
24585;SDS011;12743;52.262;6.172;2022-07-03T14:34:40;2.45;;;0.88;;
24585;SDS011;12743;52.262;6.172;2022-07-03T14:37:06;5.00;;;0.88;;
24585;SDS011;12743;52.262;6.172;2022-07-03T14:39:32;4.20;;;0.70;;
24585;SDS011;12743;52.262;6.172;2022-07-03T14:41:57;2.37;;;0.70;;
24585;SDS011;12743;52.262;6.172;2022-07-03T14:44:22;4.70;;;0.80;;
24585;SDS011;12743;52.262;6.172;2022-07-03T14:46:50;3.25;;;0.70;;
24585;SDS011;12743;52.262;6.172;2022-07-03T14:49:16;4.67;;;1.20;;
24585;SDS011;12743;52.262;6.172;2022-07-03T14:51:42;3.47;;;0.80;;
24585;SDS011;12743;52.262;6.172;2022-07-03T14:54:08;4.30;;;0.80;;
24585;SDS011;12743;52.262;6.172;2022-07-03T14:56:33;3.67;;;0.80;;
24585;SDS011;12743;52.262;6.172;2022-07-03T14:59:06;3.40;;;0.90;;
24585;SDS011;12743;52.262;6.172;2022-07-03T15:01:34;3.30;;;0.80;;
24585;SDS011;12743;52.262;6.172;2022-07-03T15:04:02;3.70;;;1.13;;
24585;SDS011;12743;52.262;6.172;2022-07-03T15:06:29;2.53;;;0.80;;
24585;SDS011;12743;52.262;6.172;2022-07-03T15:08:58;3.45;;;0.88;;
24585;SDS011;12743;52.262;6.172;2022-07-03T15:14:28;3.60;;;0.82;;
24585;SDS011;12743;52.262;6.172;2022-07-03T15:16:55;4.35;;;0.93;;
24585;SDS011;12743;52.262;6.172;2022-07-03T15:19:23;3.47;;;0.70;;
24585;SDS011;12743;52.262;6.172;2022-07-03T15:21:48;3.40;;;0.90;;
24585;SDS011;12743;52.262;6.172;2022-07-03T15:24:15;6.20;;;1.40;;
24585;SDS011;12743;52.262;6.172;2022-07-03T15:26:48;4.03;;;1.08;;
24585;SDS011;12743;52.262;6.172;2022-07-03T15:29:16;5.70;;;1.07;;
24585;SDS011;12743;52.262;6.172;2022-07-03T15:31:42;3.20;;;1.25;;
24585;SDS011;12743;52.262;6.172;2022-07-03T15:34:08;2.88;;;1.35;;
24585;SDS011;12743;52.262;6.172;2022-07-03T15:36:56;3.13;;;1.30;;
24585;SDS011;12743;52.262;6.172;2022-07-03T15:39:47;4.93;;;1.20;;
24585;SDS011;12743;52.262;6.172;2022-07-03T15:48:23;2.60;;;1.23;;
24585;SDS011;12743;52.262;6.172;2022-07-03T15:51:02;3.67;;;0.85;;
24585;SDS011;12743;52.262;6.172;2022-07-03T15:53:37;4.47;;;1.10;;
24585;SDS011;12743;52.262;6.172;2022-07-03T15:56:05;3.30;;;0.90;;
24585;SDS011;12743;52.262;6.172;2022-07-03T15:58:33;3.92;;;1.08;;
24585;SDS011;12743;52.262;6.172;2022-07-03T16:01:04;2.93;;;0.97;;
24585;SDS011;12743;52.262;6.172;2022-07-03T16:06:54;3.83;;;0.90;;
24585;SDS011;12743;52.262;6.172;2022-07-03T16:09:20;2.85;;;0.82;;
24585;SDS011;12743;52.262;6.172;2022-07-03T16:11:47;3.80;;;0.77;;
24585;SDS011;12743;52.262;6.172;2022-07-03T16:14:12;2.78;;;0.63;;
24585;SDS011;12743;52.262;6.172;2022-07-03T16:16:39;3.90;;;1.00;;
24585;SDS011;12743;52.262;6.172;2022-07-03T16:19:08;2.75;;;0.80;;
24585;SDS011;12743;52.262;6.172;2022-07-03T16:21:36;4.47;;;0.93;;
24585;SDS011;12743;52.262;6.172;2022-07-03T16:24:02;3.88;;;0.50;;